Gomera (San Sebastian), Spain
Current Conditions -  °F | °C
As of 8:00 AM on Saturday 20 Dec 2014 (Local Time) from GCTS Reporting Station
Scattered Clouds Scattered Clouds  
Wind Chill: 64°   Ceiling: Unl
Heat Index: 64°   Visibility: 6mi
Dew Point: 52°   Wind: 13mph
Humidity: 64%   Direction: 60°ENE
Pressure: 30.33"   Gusts: NA
Location:  28.09°N, 17.11°W
Report Text: GCTS 200800Z 06011KT 9999 FEW025 SCT090 18/11 Q1027 NOSIG
Loading
Personal Weather Stations






























Interactive Weather Map New forecast layout! Learn more

10-Day Weather Forecast

Advertisements
Track Severe Weather on mobile